nws-alerts: Checking more than four warning/county codes can delay the loading of your pages. You should use a cron job to get the data.
EllijayWeather Station Historical Data
Daily Summary for October 3, 2018 Units:  English    Metric   Both
Daily Weekly Monthly Yearly Custom
  High: Low: Average:
Temperature: 81.5 °F 61.2 °F 70.1 °F
Dew Point: 72.9 °F 53.6 °F 62.2 °F
Humidity: 84% 65% 76%
Wind Speed: 0.9mph 0mph 0mph
Wind Gust: 6mph - -
Wind- - SSW
Pressure: 30.21 in 30.09 in -
Precipitation: 0 in    
Historical Graphs
 
 
Tabular Data for October 3, 2018
Time Temperature Dew Point Pressure Wind Wind Speed Wind Gust Humidity Rainfall Rate (Hourly) solar
00:04 66.6 °F 59.5 °F 30.20 in Calm     78% 0 in meteobridge W/m2
00:09 66.6 °F 59.5 °F 30.20 in Calm     78% 0 in meteobridge W/m2
00:14 66.4 °F 59.4 °F 30.20 in Calm     78% 0 in meteobridge W/m2
00:19 66.4 °F 59.4 °F 30.20 in Calm     78% 0 in meteobridge W/m2
00:24 66.2 °F 59.2 °F 30.20 in Calm     78% 0 in meteobridge W/m2
00:29 66 °F 59 °F 30.20 in Calm     78% 0 in meteobridge W/m2
00:34 66 °F 59 °F 30.20 in Calm     78% 0 in meteobridge W/m2
00:39 65.8 °F 58.8 °F 30.20 in Calm     78% 0 in meteobridge W/m2
00:44 65.8 °F 58.8 °F 30.20 in Calm     78% 0 in meteobridge W/m2
00:49 65.8 °F 58.8 °F 30.20 in Calm     78% 0 in meteobridge W/m2
00:54 65.7 °F 58.6 °F 30.19 in Calm     78% 0 in meteobridge W/m2
00:59 65.7 °F 58.6 °F 30.19 in Calm     78% 0 in meteobridge W/m2
01:04 65.7 °F 58.6 °F 30.19 in Calm     78% 0 in meteobridge W/m2
01:09 65.5 °F 58.5 °F 30.19 in Calm     78% 0 in meteobridge W/m2
01:14 65.5 °F 58.5 °F 30.19 in Calm     78% 0 in meteobridge W/m2
01:19 65.3 °F 58.3 °F 30.19 in Calm     78% 0 in meteobridge W/m2
01:24 65.3 °F 58.3 °F 30.19 in Calm     78% 0 in meteobridge W/m2
01:29 65.1 °F 58.1 °F 30.19 in Calm     78% 0 in meteobridge W/m2
01:34 64.9 °F 57.9 °F 30.19 in Calm     78% 0 in meteobridge W/m2
01:39 64.9 °F 57.9 °F 30.19 in Calm     78% 0 in meteobridge W/m2
01:44 64.9 °F 57.9 °F 30.19 in Calm     78% 0 in meteobridge W/m2
01:49 64.9 °F 57.9 °F 30.19 in Calm     78% 0 in meteobridge W/m2
01:54 64.8 °F 57.7 °F 30.19 in Calm     78% 0 in meteobridge W/m2
01:59 64.8 °F 57.7 °F 30.19 in Calm     78% 0 in meteobridge W/m2
02:04 64.8 °F 57.7 °F 30.19 in Calm     78% 0 in meteobridge W/m2
02:09 64.6 °F 57.2 °F 30.19 in Calm     77% 0 in meteobridge W/m2
02:14 64.8 °F 57.4 °F 30.19 in Calm     77% 0 in meteobridge W/m2
02:19 64.6 °F 57.2 °F 30.19 in Calm     77% 0 in meteobridge W/m2
02:24 64.6 °F 57.2 °F 30.19 in Calm     77% 0 in meteobridge W/m2
02:29 64.6 °F 57.2 °F 30.19 in Calm     77% 0 in meteobridge W/m2
02:34 64.6 °F 57.2 °F 30.19 in Calm     77% 0 in meteobridge W/m2
02:39 64.4 °F 57 °F 30.19 in Calm     77% 0 in meteobridge W/m2
02:44 64.2 °F 56.8 °F 30.19 in Calm     77% 0 in meteobridge W/m2
02:49 64.2 °F 56.8 °F 30.19 in Calm     77% 0 in meteobridge W/m2
02:54 64 °F 56.7 °F 30.19 in Calm     77% 0 in meteobridge W/m2
02:59 64 °F 56.7 °F 30.19 in Calm     77% 0 in meteobridge W/m2
03:04 64 °F 56.7 °F 30.19 in Calm     77% 0 in meteobridge W/m2
03:09 63.9 °F 56.5 °F 30.19 in Calm     77% 0 in meteobridge W/m2
03:14 63.9 °F 56.5 °F 30.19 in Calm     77% 0 in meteobridge W/m2
03:19 63.9 °F 56.5 °F 30.18 in Calm     77% 0 in meteobridge W/m2
03:24 63.7 °F 56.3 °F 30.18 in Calm     77% 0 in meteobridge W/m2
03:29 63.7 °F 56.3 °F 30.18 in Calm     77% 0 in meteobridge W/m2
03:34 63.5 °F 56.5 °F 30.18 in Calm     78% 0 in meteobridge W/m2
03:39 63.3 °F 56.3 °F 30.18 in Calm     78% 0 in meteobridge W/m2
03:44 63.3 °F 55.9 °F 30.18 in Calm     77% 0 in meteobridge W/m2
03:49 63.3 °F 55.9 °F 30.18 in Calm     77% 0 in meteobridge W/m2
03:54 63.1 °F 56.1 °F 30.18 in Calm     78% 0 in meteobridge W/m2
03:59 63.1 °F 56.1 °F 30.18 in Calm     78% 0 in meteobridge W/m2
04:03 63.1 °F 56.1 °F 30.18 in Calm     78% 0 in meteobridge W/m2
04:09 63.1 °F 55.8 °F 30.18 in Calm     77% 0 in meteobridge W/m2
04:14 63.1 °F 55.8 °F 30.18 in Calm     77% 0 in meteobridge W/m2
04:19 63 °F 55.6 °F 30.18 in Calm     77% 0 in meteobridge W/m2
04:24 63 °F 55.6 °F 30.18 in Calm     77% 0 in meteobridge W/m2
04:29 63 °F 55.6 °F 30.18 in Calm     77% 0 in meteobridge W/m2
04:34 63 °F 55.6 °F 30.18 in Calm     77% 0 in meteobridge W/m2
04:39 63 °F 55.6 °F 30.19 in Calm     77% 0 in meteobridge W/m2
04:44 62.8 °F 55.4 °F 30.19 in Calm     77% 0 in meteobridge W/m2
04:49 62.8 °F 55.4 °F 30.19 in Calm     77% 0 in meteobridge W/m2
04:54 62.8 °F 55.4 °F 30.18 in Calm     77% 0 in meteobridge W/m2
04:59 62.6 °F 55.2 °F 30.19 in Calm     77% 0 in meteobridge W/m2
05:04 62.4 °F 55 °F 30.19 in Calm     77% 0 in meteobridge W/m2
05:09 62.4 °F 55 °F 30.18 in Calm     77% 0 in meteobridge W/m2
05:14 62.4 °F 55 °F 30.18 in Calm     77% 0 in meteobridge W/m2
05:19 62.2 °F 54.9 °F 30.18 in Calm     77% 0 in meteobridge W/m2
05:24 62.2 °F 54.9 °F 30.18 in Calm     77% 0 in meteobridge W/m2
05:29 62.2 °F 54.9 °F 30.19 in Calm     77% 0 in meteobridge W/m2
05:34 62.2 °F 54.9 °F 30.18 in Calm     77% 0 in meteobridge W/m2
05:39 62.1 °F 54.7 °F 30.18 in Calm     77% 0 in meteobridge W/m2
05:44 62.1 °F 54.7 °F 30.18 in Calm     77% 0 in meteobridge W/m2
05:49 62.1 °F 54.7 °F 30.18 in Calm     77% 0 in meteobridge W/m2
05:53 62.1 °F 54.7 °F 30.19 in Calm     77% 0 in meteobridge W/m2
05:59 62.1 °F 54.7 °F 30.19 in Calm     77% 0 in meteobridge W/m2
06:04 62.1 °F 54.7 °F 30.19 in Calm     77% 0 in meteobridge W/m2
06:09 62.1 °F 54.7 °F 30.19 in Calm     77% 0 in meteobridge W/m2
06:14 62.1 °F 54.7 °F 30.19 in Calm     77% 0 in meteobridge W/m2
06:19 62.1 °F 54.7 °F 30.19 in Calm     77% 0 in meteobridge W/m2
06:24 62.1 °F 54.7 °F 30.19 in Calm     77% 0 in meteobridge W/m2
06:29 62.1 °F 54.7 °F 30.19 in Calm     77% 0 in meteobridge W/m2
06:34 61.9 °F 54.7 °F 30.19 in Calm     77% 0 in meteobridge W/m2
06:39 61.9 °F 54.7 °F 30.19 in Calm     77% 0 in meteobridge W/m2
06:44 61.9 °F 54.7 °F 30.19 in Calm     77% 0 in meteobridge W/m2
06:49 61.9 °F 54.7 °F 30.19 in Calm     77% 0 in meteobridge W/m2
06:54 61.9 °F 54.7 °F 30.19 in Calm     77% 0 in meteobridge W/m2
06:59 61.7 °F 54.5 °F 30.19 in Calm     77% 0 in meteobridge W/m2
07:04 61.7 °F 54.5 °F 30.19 in Calm     77% 0 in meteobridge W/m2
07:09 61.5 °F 54.3 °F 30.19 in Calm     77% 0 in meteobridge W/m2
07:14 61.5 °F 54.3 °F 30.19 in Calm     77% 0 in meteobridge W/m2
07:19 61.5 °F 54.3 °F 30.19 in Calm     77% 0 in meteobridge W/m2
07:24 61.3 °F 54.1 °F 30.19 in Calm     77% 0 in meteobridge W/m2
07:29 61.3 °F 54.1 °F 30.19 in Calm     77% 0 in meteobridge W/m2
07:34 61.3 °F 54.1 °F 30.19 in Calm     77% 0 in meteobridge W/m2
07:39 61.3 °F 54.1 °F 30.19 in Calm     77% 0 in meteobridge W/m2
07:44 61.3 °F 54.1 °F 30.19 in Calm     77% 0 in meteobridge W/m2
07:49 61.3 °F 54.1 °F 30.20 in Calm     77% 0 in meteobridge W/m2
07:54 61.2 °F 54 °F 30.19 in Calm     77% 0 in meteobridge W/m2
07:58 61.2 °F 54 °F 30.20 in Calm     77% 0 in meteobridge W/m2
08:04 61.2 °F 54 °F 30.20 in Calm     77% 0 in meteobridge W/m2
08:09 61.2 °F 54 °F 30.20 in Calm     77% 0 in meteobridge W/m2
08:14 61.2 °F 54 °F 30.20 in Calm     77% 0 in meteobridge W/m2
08:19 61.2 °F 53.6 °F 30.20 in Calm     76% 0 in meteobridge W/m2
08:24 61.3 °F 54.1 °F 30.20 in Calm     77% 0 in meteobridge W/m2
08:29 61.3 °F 53.8 °F 30.20 in Calm     76% 0 in meteobridge W/m2
08:34 61.5 °F 54 °F 30.19 in Calm     76% 0 in meteobridge W/m2
08:39 61.5 °F 54 °F 30.20 in Calm     76% 0 in meteobridge W/m2
08:44 61.7 °F 54.1 °F 30.20 in Calm     76% 0 in meteobridge W/m2
08:49 61.9 °F 54.3 °F 30.20 in Calm     76% 0 in meteobridge W/m2
08:54 61.9 °F 54.3 °F 30.20 in Calm     76% 0 in meteobridge W/m2
08:59 62.1 °F 54.3 °F 30.20 in Calm     76% 0 in meteobridge W/m2
09:04 62.2 °F 54.5 °F 30.20 in Calm     76% 0 in meteobridge W/m2
09:09 62.8 °F 54.7 °F 30.20 in Calm     75% 0 in meteobridge W/m2
09:14 63 °F 55.2 °F 30.20 in Calm     76% 0 in meteobridge W/m2
09:19 63.1 °F 55 °F 30.20 in Calm     75% 0 in meteobridge W/m2
09:24 63.5 °F 55.4 °F 30.20 in Calm     75% 0 in meteobridge W/m2
09:29 63.9 °F 55.8 °F 30.20 in Calm     75% 0 in meteobridge W/m2
09:34 64 °F 55.9 °F 30.20 in Calm     75% 0 in meteobridge W/m2
09:39 64.4 °F 56.3 °F 30.20 in Calm     75% 0 in meteobridge W/m2
09:44 64.8 °F 56.7 °F 30.20 in Calm     75% 0 in meteobridge W/m2
09:49 65.1 °F 56.7 °F 30.20 in Calm     74% 0 in meteobridge W/m2
09:54 65.7 °F 57.2 °F 30.21 in Calm     74% 0 in meteobridge W/m2
09:59 66 °F 57.6 °F 30.20 in Calm     74% 0 in meteobridge W/m2
10:04 66.6 °F 58.1 °F 30.20 in Calm     74% 0 in meteobridge W/m2
10:09 66.7 °F 58.1 °F 30.20 in Calm     74% 0 in meteobridge W/m2
10:14 67.3 °F 58.6 °F 30.21 in Calm     74% 0 in meteobridge W/m2
10:19 67.6 °F 59 °F 30.21 in Calm     74% 0 in meteobridge W/m2
10:24 68.4 °F 59.7 °F 30.20 in Calm     74% 0 in meteobridge W/m2
10:29 68.7 °F 59.7 °F 30.20 in Calm     73% 0 in meteobridge W/m2
10:34 69.3 °F 60.3 °F 30.20 in Calm     73% 0 in meteobridge W/m2
10:39 69.6 °F 61 °F 30.20 in Calm     74% 0 in meteobridge W/m2
10:44 70 °F 61.7 °F 30.20 in Calm     75% 0 in meteobridge W/m2
10:49 70.5 °F 63.3 °F 30.20 in Calm     78% 0 in meteobridge W/m2
10:54 71.4 °F 65.3 °F 30.20 in Calm     81% 0 in meteobridge W/m2
10:59 72.1 °F 67.1 °F 30.20 in Calm     84% 0 in meteobridge W/m2
11:04 72.9 °F 67.5 °F 30.19 in Calm   1 mph 83% 0 in meteobridge W/m2
11:09 73.6 °F 68.4 °F 30.19 in Calm     84% 0 in meteobridge W/m2
11:14 74.1 °F 68.5 °F 30.19 in Calm   3 mph 83% 0 in meteobridge W/m2
11:19 74.5 °F 68.2 °F 30.19 in Calm   2 mph 81% 0 in meteobridge W/m2
11:24 74.8 °F 68.5 °F 30.19 in Calm   2 mph 81% 0 in meteobridge W/m2
11:29 75.4 °F 68.7 °F 30.19 in Calm   1 mph 80% 0 in meteobridge W/m2
11:34 75.7 °F 69.1 °F 30.19 in Calm   1 mph 80% 0 in meteobridge W/m2
11:39 75.9 °F 70 °F 30.19 in Calm     82% 0 in meteobridge W/m2
11:44 75.9 °F 68.5 °F 30.18 in Calm     78% 0 in meteobridge W/m2
11:49 76.3 °F 68.9 °F 30.18 in Calm     78% 0 in meteobridge W/m2
11:54 76.5 °F 68.4 °F 30.18 in Calm     76% 0 in meteobridge W/m2
11:59 76.6 °F 68.2 °F 30.18 in Calm   3 mph 75% 0 in meteobridge W/m2
12:04 76.8 °F 67.8 °F 30.18 in Calm     74% 0 in meteobridge W/m2
12:09 77.2 °F 67.8 °F 30.18 in Calm     73% 0 in meteobridge W/m2
12:13 77.4 °F 68 °F 30.17 in North 0.9 mph 3 mph 73% 0 in meteobridge W/m2
12:19 77.5 °F 67.8 °F 30.17 in Calm     72% 0 in meteobridge W/m2
12:24 77.9 °F 68.2 °F 30.17 in Calm     72% 0 in meteobridge W/m2
12:29 78.1 °F 67.8 °F 30.17 in Calm     71% 0 in meteobridge W/m2
12:34 78.1 °F 68.4 °F 30.17 in Calm   1 mph 72% 0 in meteobridge W/m2
12:39 78.3 °F 68 °F 30.17 in Calm   4 mph 71% 0 in meteobridge W/m2
12:44 78.6 °F 68 °F 30.17 in Calm   2 mph 70% 0 in meteobridge W/m2
12:49 79 °F 68.4 °F 30.16 in Calm     70% 0 in meteobridge W/m2
12:54 79.3 °F 68.4 °F 30.16 in Calm   3 mph 69% 0 in meteobridge W/m2
12:59 79.5 °F 68 °F 30.16 in Calm   1 mph 68% 0 in meteobridge W/m2
13:04 79.5 °F 68.5 °F 30.16 in Calm   2 mph 69% 0 in meteobridge W/m2
13:09 79.5 °F 69.3 °F 30.16 in Calm     71% 0 in meteobridge W/m2
13:14 79.2 °F 68.2 °F 30.16 in Calm     69% 0 in meteobridge W/m2
13:19 79 °F 68 °F 30.16 in Calm     69% 0 in meteobridge W/m2
13:24 79.2 °F 68.2 °F 30.15 in Calm     69% 0 in meteobridge W/m2
13:29 79.2 °F 68.2 °F 30.15 in Calm   5 mph 69% 0 in meteobridge W/m2
13:34 79.3 °F 67.8 °F 30.15 in Calm   1 mph 68% 0 in meteobridge W/m2
13:39 79.5 °F 68 °F 30.14 in Calm     68% 0 in meteobridge W/m2
13:44 79.9 °F 69.3 °F 30.14 in Calm   1 mph 70% 0 in meteobridge W/m2
13:49 80.1 °F 68.5 °F 30.14 in Calm     68% 0 in meteobridge W/m2
13:54 80.4 °F 68.9 °F 30.14 in Calm   1 mph 68% 0 in meteobridge W/m2
13:59 80.8 °F 70.2 °F 30.13 in Calm   1 mph 70% 0 in meteobridge W/m2
14:04 80.8 °F 70.5 °F 30.13 in Calm   1 mph 71% 0 in meteobridge W/m2
14:09 80.8 °F 69.3 °F 30.13 in Calm   4 mph 68% 0 in meteobridge W/m2
14:14 81 °F 69.4 °F 30.13 in Calm   4 mph 68% 0 in meteobridge W/m2
14:19 81.1 °F 69.1 °F 30.12 in Calm   1 mph 67% 0 in meteobridge W/m2
14:24 81.1 °F 69.1 °F 30.12 in Calm   4 mph 67% 0 in meteobridge W/m2
14:29 81.3 °F 68.9 °F 30.12 in North 0.9 mph 1 mph 66% 0 in meteobridge W/m2
14:34 81.3 °F 69.8 °F 30.11 in Calm     68% 0 in meteobridge W/m2
14:39 81.1 °F 70 °F 30.11 in Calm     69% 0 in meteobridge W/m2
14:44 80.8 °F 69.3 °F 30.11 in Calm     68% 0 in meteobridge W/m2
14:49 80.8 °F 68.7 °F 30.11 in Calm   2 mph 67% 0 in meteobridge W/m2
14:54 81.1 °F 69.1 °F 30.11 in Calm   6 mph 67% 0 in meteobridge W/m2
14:59 81.3 °F 68.9 °F 30.11 in Calm   2 mph 66% 0 in meteobridge W/m2
15:04 81.5 °F 70.3 °F 30.11 in Calm   1 mph 69% 0 in meteobridge W/m2
15:09 81.1 °F 70 °F 30.11 in Calm     69% 0 in meteobridge W/m2
15:14 81 °F 69.4 °F 30.11 in Calm     68% 0 in meteobridge W/m2
15:19 81 °F 70.7 °F 30.11 in NW 0.9 mph 3 mph 71% 0 in meteobridge W/m2
15:24 80.8 °F 69.6 °F 30.11 in Calm     69% 0 in meteobridge W/m2
15:29 81 °F 71.1 °F 30.10 in Calm     72% 0 in meteobridge W/m2
15:33 80.8 °F 69.3 °F 30.10 in NNW 0.9 mph 3 mph 68% 0 in meteobridge W/m2
15:39 81 °F 68 °F 30.10 in Calm   4 mph 65% 0 in meteobridge W/m2
15:44 81.1 °F 68.7 °F 30.10 in Calm   1 mph 66% 0 in meteobridge W/m2
15:49 81.3 °F 68.9 °F 30.10 in Calm   4 mph 66% 0 in meteobridge W/m2
15:54 81.3 °F 68.9 °F 30.10 in Calm     66% 0 in meteobridge W/m2
15:59 81.3 °F 69.8 °F 30.09 in Calm     68% 0 in meteobridge W/m2
16:04 81.1 °F 69.1 °F 30.09 in Calm     67% 0 in meteobridge W/m2
16:09 81.1 °F 69.1 °F 30.09 in Calm   1 mph 67% 0 in meteobridge W/m2
16:14 81.1 °F 70 °F 30.09 in NW 0.9 mph 1 mph 69% 0 in meteobridge W/m2
16:19 81.3 °F 71.4 °F 30.09 in Calm     72% 0 in meteobridge W/m2
16:24 81.1 °F 69.6 °F 30.09 in Calm   3 mph 68% 0 in meteobridge W/m2
16:29 81.1 °F 69.6 °F 30.09 in Calm   1 mph 68% 0 in meteobridge W/m2
16:34 81.5 °F 72.9 °F 30.09 in WNW 0.9 mph 1 mph 75% 0 in meteobridge W/m2
16:39 81.5 °F 72 °F 30.09 in Calm     73% 0 in meteobridge W/m2
16:44 81.3 °F 70.2 °F 30.09 in Calm   1 mph 69% 0 in meteobridge W/m2
16:49 81.1 °F 70.9 °F 30.09 in Calm     71% 0 in meteobridge W/m2
16:54 80.8 °F 70.9 °F 30.09 in Calm     72% 0 in meteobridge W/m2
16:59 80.2 °F 70.9 °F 30.09 in Calm     73% 0 in meteobridge W/m2
17:04 79.9 °F 71.2 °F 30.09 in Calm     75% 0 in meteobridge W/m2
17:09 79.3 °F 69.4 °F 30.09 in Calm   1 mph 72% 0 in meteobridge W/m2
17:14 79.3 °F 72 °F 30.09 in Calm     78% 0 in meteobridge W/m2
17:19 79.2 °F 70.5 °F 30.09 in Calm     75% 0 in meteobridge W/m2
17:24 79.2 °F 71.2 °F 30.09 in Calm   1 mph 77% 0 in meteobridge W/m2
17:29 79 °F 70.7 °F 30.09 in Calm   1 mph 76% 0 in meteobridge W/m2
17:34 78.8 °F 70.5 °F 30.09 in Calm   1 mph 76% 0 in meteobridge W/m2
17:39 78.6 °F 70 °F 30.09 in Calm     75% 0 in meteobridge W/m2
17:44 78.3 °F 70 °F 30.09 in Calm     76% 0 in meteobridge W/m2
17:49 78.3 °F 71.2 °F 30.09 in Calm     79% 0 in meteobridge W/m2
17:54 78.1 °F 71.1 °F 30.09 in Calm     79% 0 in meteobridge W/m2
17:59 77.5 °F 70.5 °F 30.09 in Calm     79% 0 in meteobridge W/m2
18:04 77.4 °F 70.7 °F 30.09 in Calm     80% 0 in meteobridge W/m2
18:09 77.2 °F 70.9 °F 30.09 in Calm     81% 0 in meteobridge W/m2
18:14 76.8 °F 70.2 °F 30.09 in Calm     80% 0 in meteobridge W/m2
18:19 76.5 °F 70.5 °F 30.09 in Calm     82% 0 in meteobridge W/m2
18:24 76.3 °F 70.3 °F 30.09 in Calm     82% 0 in meteobridge W/m2
18:29 75.9 °F 70 °F 30.09 in Calm     82% 0 in meteobridge W/m2
18:34 75.6 °F 70 °F 30.09 in Calm     83% 0 in meteobridge W/m2
18:39 75.4 °F 69.8 °F 30.09 in Calm     83% 0 in meteobridge W/m2
18:44 75 °F 69.4 °F 30.09 in Calm     83% 0 in meteobridge W/m2
18:49 74.8 °F 69.3 °F 30.09 in Calm     83% 0 in meteobridge W/m2
18:54 74.7 °F 69.4 °F 30.09 in Calm     84% 0 in meteobridge W/m2
18:59 74.7 °F 69.4 °F 30.09 in Calm     84% 0 in meteobridge W/m2
19:04 74.3 °F 69.1 °F 30.09 in Calm     84% 0 in meteobridge W/m2
19:09 74.1 °F 68.9 °F 30.09 in Calm     84% 0 in meteobridge W/m2
19:14 73.9 °F 68.7 °F 30.09 in Calm     84% 0 in meteobridge W/m2
19:19 73.6 °F 68.2 °F 30.10 in Calm     83% 0 in meteobridge W/m2
19:24 73.4 °F 68 °F 30.10 in Calm     83% 0 in meteobridge W/m2
19:29 73 °F 68 °F 30.10 in Calm     84% 0 in meteobridge W/m2
19:34 73 °F 68 °F 30.10 in Calm     84% 0 in meteobridge W/m2
19:39 72.9 °F 67.5 °F 30.10 in Calm     83% 0 in meteobridge W/m2
19:44 72.7 °F 67.3 °F 30.10 in Calm     83% 0 in meteobridge W/m2
19:49 72.3 °F 66.9 °F 30.10 in Calm     83% 0 in meteobridge W/m2
19:54 72.1 °F 66.7 °F 30.10 in Calm     83% 0 in meteobridge W/m2
19:59 72 °F 66.6 °F 30.10 in Calm     83% 0 in meteobridge W/m2
20:04 71.6 °F 66.2 °F 30.11 in Calm     83% 0 in meteobridge W/m2
20:09 71.4 °F 66 °F 30.11 in Calm     83% 0 in meteobridge W/m2
20:14 71.2 °F 65.8 °F 30.11 in Calm     83% 0 in meteobridge W/m2
20:19 71.1 °F 65.3 °F 30.11 in Calm     82% 0 in meteobridge W/m2
20:24 70.9 °F 65.5 °F 30.11 in Calm     83% 0 in meteobridge W/m2
20:29 70.7 °F 64.9 °F 30.11 in Calm     82% 0 in meteobridge W/m2
20:34 70.5 °F 64.8 °F 30.11 in Calm     82% 0 in meteobridge W/m2
20:39 70.3 °F 64.6 °F 30.11 in Calm     82% 0 in meteobridge W/m2
20:44 70.2 °F 64.4 °F 30.12 in Calm     82% 0 in meteobridge W/m2
20:49 70 °F 63.9 °F 30.12 in Calm     81% 0 in meteobridge W/m2
20:54 70 °F 63.9 °F 30.12 in Calm     81% 0 in meteobridge W/m2
20:59 69.8 °F 63.7 °F 30.12 in Calm     81% 0 in meteobridge W/m2
21:04 69.6 °F 63.5 °F 30.12 in Calm     81% 0 in meteobridge W/m2
21:09 69.4 °F 63.3 °F 30.13 in Calm     81% 0 in meteobridge W/m2
21:14 69.4 °F 63.3 °F 30.13 in Calm     81% 0 in meteobridge W/m2
21:19 69.4 °F 63 °F 30.12 in Calm     80% 0 in meteobridge W/m2
21:24 69.3 °F 62.8 °F 30.12 in Calm     80% 0 in meteobridge W/m2
21:29 69.3 °F 62.8 °F 30.13 in Calm     80% 0 in meteobridge W/m2
21:34 69.1 °F 62.6 °F 30.13 in Calm     80% 0 in meteobridge W/m2
21:39 69.1 °F 62.2 °F 30.13 in Calm     79% 0 in meteobridge W/m2
21:44 69.1 °F 62.2 °F 30.13 in Calm     79% 0 in meteobridge W/m2
21:49 68.9 °F 62.4 °F 30.13 in Calm     80% 0 in meteobridge W/m2
21:54 68.7 °F 61.9 °F 30.13 in Calm     79% 0 in meteobridge W/m2
21:59 68.7 °F 61.9 °F 30.13 in Calm     79% 0 in meteobridge W/m2
22:04 68.7 °F 61.9 °F 30.13 in Calm     79% 0 in meteobridge W/m2
22:09 68.5 °F 61.7 °F 30.14 in Calm     79% 0 in meteobridge W/m2
22:14 68.5 °F 61.7 °F 30.14 in Calm     79% 0 in meteobridge W/m2
22:19 68.5 °F 61.3 °F 30.13 in Calm     78% 0 in meteobridge W/m2
22:24 68.5 °F 61.3 °F 30.13 in Calm     78% 0 in meteobridge W/m2
22:29 68.4 °F 61.2 °F 30.14 in Calm     78% 0 in meteobridge W/m2
22:34 68.4 °F 61.2 °F 30.14 in Calm     78% 0 in meteobridge W/m2
22:39 68.2 °F 61 °F 30.14 in Calm     78% 0 in meteobridge W/m2
22:44 68.2 °F 61 °F 30.14 in Calm     78% 0 in meteobridge W/m2
22:49 68.2 °F 61 °F 30.14 in Calm     78% 0 in meteobridge W/m2
22:54 67.8 °F 60.6 °F 30.14 in Calm     78% 0 in meteobridge W/m2
22:59 67.8 °F 60.6 °F 30.14 in Calm     78% 0 in meteobridge W/m2
23:04 67.8 °F 60.6 °F 30.14 in Calm     78% 0 in meteobridge W/m2
23:09 67.6 °F 60.6 °F 30.14 in Calm     78% 0 in meteobridge W/m2
23:14 67.6 °F 60.6 °F 30.14 in Calm     78% 0 in meteobridge W/m2
23:19 67.6 °F 60.6 °F 30.14 in Calm     78% 0 in meteobridge W/m2
23:24 67.5 °F 60.1 °F 30.14 in Calm     77% 0 in meteobridge W/m2
23:29 67.5 °F 60.1 °F 30.14 in Calm     77% 0 in meteobridge W/m2
23:34 67.3 °F 59.9 °F 30.14 in Calm     77% 0 in meteobridge W/m2
23:39 67.3 °F 59.9 °F 30.14 in Calm     77% 0 in meteobridge W/m2
23:44 67.1 °F 59.7 °F 30.14 in Calm     77% 0 in meteobridge W/m2
23:49 66.9 °F 59.5 °F 30.14 in Calm     77% 0 in meteobridge W/m2
23:54 66.9 °F 59.5 °F 30.14 in Calm     77% 0 in meteobridge W/m2
23:59 66.9 °F 59.5 °F 30.14 in Calm     77% 0 in meteobridge W/m2
EllijayWeather
Compliments of Weather Underground - 2.5 mb